createdAt,value
2023-09-08T00:01:20.822Z,4.28
2023-09-08T00:03:50.919Z,4.28
2023-09-08T00:06:23.536Z,4.93
2023-09-08T00:08:53.622Z,4.22
2023-09-08T00:11:23.620Z,4.53
2023-09-08T00:13:53.641Z,4.30
2023-09-08T00:16:24.096Z,4.40
2023-09-08T00:18:54.375Z,4.30
2023-09-08T00:21:27.687Z,4.18
2023-09-08T00:23:58.195Z,4.43
2023-09-08T00:26:28.468Z,4.07
2023-09-08T00:28:58.503Z,4.18
2023-09-08T00:31:28.648Z,4.32
2023-09-08T00:33:58.742Z,3.88
2023-09-08T00:36:31.497Z,4.22
2023-09-08T00:39:01.532Z,4.38
2023-09-08T00:41:31.971Z,4.22
2023-09-08T00:44:02.001Z,4.20
2023-09-08T00:46:32.596Z,4.40
2023-09-08T00:49:02.878Z,4.57
2023-09-08T00:51:36.312Z,4.47
2023-09-08T00:54:06.509Z,3.88
2023-09-08T00:56:37.928Z,4.07
2023-09-08T00:59:09.119Z,4.43
2023-09-08T01:01:39.250Z,4.28
2023-09-08T01:04:11.650Z,4.60
2023-09-08T01:06:45.269Z,4.30
2023-09-08T01:09:16.642Z,4.38
2023-09-08T01:11:46.875Z,4.05
2023-09-08T01:14:22.470Z,3.95
2023-09-08T01:16:52.889Z,4.03
2023-09-08T01:19:23.636Z,4.18
2023-09-08T01:22:24.989Z,4.00
2023-09-08T01:25:17.206Z,4.35
2023-09-08T01:27:51.152Z,4.70
2023-09-08T01:30:22.400Z,4.53
2023-09-08T01:32:53.171Z,4.15
2023-09-08T01:35:23.368Z,4.63
2023-09-08T01:37:53.452Z,4.50
2023-09-08T01:40:26.296Z,4.85
2023-09-08T01:42:56.482Z,4.65
2023-09-08T01:45:26.710Z,4.53
2023-09-08T01:47:56.903Z,4.18
2023-09-08T01:50:26.973Z,4.30
2023-09-08T01:52:57.568Z,4.95
2023-09-08T01:55:30.251Z,5.25
2023-09-08T01:58:00.850Z,4.45
2023-09-08T02:00:31.832Z,4.22
2023-09-08T02:03:02.042Z,4.68
2023-09-08T02:05:32.247Z,4.05
2023-09-08T02:08:02.430Z,4.35
2023-09-08T02:10:38.028Z,4.70
2023-09-08T02:13:08.359Z,4.18
2023-09-08T02:15:39.566Z,4.78
2023-09-08T02:18:11.455Z,4.43
2023-09-08T02:20:41.581Z,4.70
2023-09-08T02:23:12.223Z,4.47
2023-09-08T02:25:45.027Z,4.35
2023-09-08T02:28:14.992Z,4.32
2023-09-08T02:30:45.290Z,4.43
2023-09-08T02:33:15.350Z,4.45
2023-09-08T02:35:45.436Z,4.30
2023-09-08T02:38:15.956Z,3.95
2023-09-08T02:40:48.578Z,4.50
2023-09-08T02:43:18.746Z,4.25
2023-09-08T02:45:51.281Z,4.53
2023-09-08T02:48:22.399Z,4.10
2023-09-08T02:50:52.599Z,4.32
2023-09-08T02:53:22.676Z,4.40
2023-09-08T02:55:56.373Z,4.53
2023-09-08T02:58:26.571Z,5.00
2023-09-08T03:00:57.124Z,4.45
2023-09-08T03:03:27.340Z,4.47
2023-09-08T03:06:01.623Z,4.50
2023-09-08T03:08:32.210Z,4.50
2023-09-08T03:11:04.908Z,4.50
2023-09-08T03:13:35.502Z,4.85
2023-09-08T03:16:10.028Z,4.85
2023-09-08T03:18:40.924Z,4.50
2023-09-08T03:21:13.850Z,4.32
2023-09-08T03:23:45.779Z,4.82
2023-09-08T03:26:18.430Z,4.82
2023-09-08T03:28:48.406Z,4.45
2023-09-08T03:31:19.397Z,4.45
2023-09-08T03:33:49.672Z,4.65
2023-09-08T03:36:20.766Z,4.93
2023-09-08T03:38:50.817Z,4.45
2023-09-08T03:41:23.598Z,4.63
2023-09-08T03:43:53.620Z,4.80
2023-09-08T03:46:25.811Z,4.47
2023-09-08T03:49:01.351Z,4.72
2023-09-08T03:51:31.608Z,4.88
2023-09-08T03:54:01.674Z,4.97
2023-09-08T03:56:35.164Z,4.55
2023-09-08T03:59:05.324Z,4.80
2023-09-08T04:01:35.698Z,4.60
2023-09-08T04:04:05.954Z,4.75
2023-09-08T04:06:36.016Z,5.00
2023-09-08T04:09:06.375Z,4.45
2023-09-08T04:11:39.027Z,4.18
2023-09-08T04:14:09.023Z,5.03
2023-09-08T04:16:39.443Z,4.47
2023-09-08T04:19:09.495Z,5.03
2023-09-08T04:21:39.998Z,5.03
2023-09-08T04:24:11.811Z,4.75
2023-09-08T04:26:44.743Z,4.72
2023-09-08T04:29:14.770Z,4.60
2023-09-08T04:31:44.909Z,4.65
2023-09-08T04:34:15.015Z,4.68
2023-09-08T04:36:45.131Z,4.70
2023-09-08T04:39:16.847Z,4.97
2023-09-08T04:41:49.549Z,4.57
2023-09-08T04:44:19.799Z,4.80
2023-09-08T04:46:50.268Z,5.20
2023-09-08T04:49:20.340Z,5.00
2023-09-08T04:51:50.400Z,5.22
2023-09-08T04:54:27.780Z,5.22
2023-09-08T04:57:15.922Z,5.05
2023-09-08T04:59:51.531Z,4.93
2023-09-08T05:02:21.893Z,5.05
2023-09-08T05:04:52.240Z,5.10
2023-09-08T05:07:22.810Z,5.00
2023-09-08T05:09:55.110Z,5.30
2023-09-08T05:12:30.353Z,5.43
2023-09-08T05:15:07.340Z,5.60
2023-09-08T05:17:40.092Z,6.07
2023-09-08T05:20:11.805Z,5.40
2023-09-08T05:22:42.234Z,4.97
2023-09-08T05:25:12.957Z,5.15
2023-09-08T05:27:47.030Z,5.05
2023-09-08T05:30:17.971Z,4.95
2023-09-08T05:32:48.206Z,5.10
2023-09-08T05:35:19.697Z,5.13
2023-09-08T05:37:50.565Z,4.63
2023-09-08T05:40:22.823Z,5.25
2023-09-08T05:42:55.885Z,5.30
2023-09-08T05:45:26.980Z,4.90
2023-09-08T05:47:57.718Z,4.93
2023-09-08T05:50:28.445Z,4.82
2023-09-08T05:52:59.004Z,5.65
2023-09-08T05:55:29.449Z,5.22
2023-09-08T05:58:02.109Z,5.40
2023-09-08T06:00:32.177Z,5.40
2023-09-08T06:03:02.464Z,5.45
2023-09-08T06:05:32.739Z,5.05
2023-09-08T06:08:07.601Z,4.93
2023-09-08T06:10:42.217Z,5.78
2023-09-08T06:13:15.442Z,5.30
2023-09-08T06:15:46.821Z,4.80
2023-09-08T06:18:16.983Z,4.75
2023-09-08T06:20:50.711Z,4.78
2023-09-08T06:23:24.247Z,4.68
2023-09-08T06:26:01.359Z,5.35
2023-09-08T06:28:37.394Z,4.93
2023-09-08T06:31:08.651Z,4.53
2023-09-08T06:33:41.079Z,4.70
2023-09-08T06:36:11.302Z,4.47
2023-09-08T06:38:41.266Z,4.40
2023-09-08T06:41:15.465Z,4.50
2023-09-08T06:43:48.960Z,4.18
2023-09-08T06:46:24.745Z,4.47
2023-09-08T06:48:54.992Z,4.22
2023-09-08T06:51:25.874Z,4.25
2023-09-08T06:54:01.344Z,4.68
2023-09-08T06:56:39.127Z,4.72
2023-09-08T06:59:13.331Z,4.57
2023-09-08T07:01:43.511Z,5.18
2023-09-08T07:04:14.270Z,4.90
2023-09-08T07:06:45.838Z,4.35
2023-09-08T07:09:16.835Z,4.50
2023-09-08T07:11:47.870Z,4.70
2023-09-08T07:14:20.623Z,4.50
2023-09-08T07:16:50.675Z,4.10
2023-09-08T07:19:20.864Z,4.53
2023-09-08T07:21:50.974Z,4.35
2023-09-08T07:24:21.117Z,4.57
2023-09-08T07:26:52.036Z,4.75
2023-09-08T07:29:24.907Z,4.32
2023-09-08T07:31:54.921Z,4.22
2023-09-08T07:34:24.933Z,4.75
2023-09-08T07:36:55.456Z,4.55
2023-09-08T07:39:25.796Z,4.32
2023-09-08T07:41:59.085Z,4.75
2023-09-08T07:44:34.366Z,4.55
2023-09-08T07:47:04.816Z,4.15
2023-09-08T07:49:36.879Z,4.43
2023-09-08T07:52:08.672Z,3.72
2023-09-08T07:54:38.610Z,4.70
2023-09-08T07:57:08.972Z,4.40
2023-09-08T07:59:41.687Z,3.88
2023-09-08T08:02:12.243Z,4.22
2023-09-08T08:04:42.266Z,4.15
2023-09-08T08:07:12.363Z,4.32
2023-09-08T08:09:44.697Z,4.53
2023-09-08T08:12:15.011Z,4.15
2023-09-08T08:14:47.545Z,4.28
2023-09-08T08:17:18.793Z,3.88
2023-09-08T08:19:48.762Z,3.63
2023-09-08T08:22:18.812Z,4.38
2023-09-08T08:24:49.292Z,3.63
2023-09-08T08:27:19.433Z,4.07
2023-09-08T08:29:52.267Z,3.67
2023-09-08T08:32:22.360Z,3.60
2023-09-08T08:34:52.603Z,3.78
2023-09-08T08:37:22.633Z,3.70
2023-09-08T08:39:52.694Z,3.90
2023-09-08T08:42:23.970Z,3.72
2023-09-08T08:44:57.257Z,3.78
2023-09-08T08:47:28.943Z,4.18
2023-09-08T08:50:00.883Z,3.42
2023-09-08T08:52:31.881Z,3.88
2023-09-08T08:55:03.932Z,3.45
2023-09-08T08:57:34.780Z,3.63
2023-09-08T09:00:11.671Z,3.08
2023-09-08T09:02:45.267Z,3.85
2023-09-08T09:05:18.082Z,3.42
2023-09-08T09:07:48.469Z,3.72
2023-09-08T09:10:18.676Z,3.78
2023-09-08T09:12:48.666Z,3.85
2023-09-08T09:15:33.823Z,3.47
2023-09-08T09:18:09.171Z,3.67
2023-09-08T09:20:39.447Z,3.63
2023-09-08T09:23:09.502Z,3.70
2023-09-08T09:25:40.233Z,3.55
2023-09-08T09:28:10.606Z,3.50
2023-09-08T09:30:56.294Z,3.72
2023-09-08T09:33:27.287Z,3.45
2023-09-08T09:35:59.621Z,3.40
2023-09-08T09:38:31.740Z,3.22
2023-09-08T09:41:02.173Z,3.35
2023-09-08T09:43:33.565Z,3.38
2023-09-08T09:46:06.189Z,3.40
2023-09-08T09:48:36.389Z,3.75
2023-09-08T09:51:20.728Z,3.17
2023-09-08T09:53:51.786Z,3.50
2023-09-08T09:56:22.222Z,3.15
2023-09-08T09:58:53.068Z,3.08
2023-09-08T10:01:28.720Z,3.38
2023-09-08T10:03:59.253Z,3.33
2023-09-08T10:06:30.926Z,3.15
2023-09-08T10:09:02.695Z,3.38
2023-09-08T10:11:38.159Z,2.85
2023-09-08T10:14:12.563Z,2.80
2023-09-08T10:16:50.977Z,2.70
2023-09-08T10:19:21.859Z,3.50
2023-09-08T10:21:54.806Z,2.88
2023-09-08T10:24:27.971Z,2.90
2023-09-08T10:27:02.714Z,2.90
2023-09-08T10:29:33.641Z,2.97
2023-09-08T10:32:08.046Z,3.20
2023-09-08T10:34:42.066Z,3.15
2023-09-08T10:37:26.096Z,3.13
2023-09-08T10:39:56.216Z,3.03
2023-09-08T10:42:30.638Z,3.17
2023-09-08T10:45:05.621Z,3.10
2023-09-08T10:47:58.333Z,3.08
2023-09-08T10:50:36.226Z,3.30
2023-09-08T10:53:17.491Z,3.50
2023-09-08T10:56:10.892Z,2.90
2023-09-08T10:58:44.794Z,3.40
2023-09-08T11:01:19.478Z,3.25
2023-09-08T11:03:53.329Z,3.25
2023-09-08T11:06:31.619Z,2.90
2023-09-08T11:09:10.930Z,3.33
2023-09-08T11:11:40.987Z,3.15
2023-09-08T11:14:11.040Z,2.90
2023-09-08T11:16:41.110Z,3.17
2023-09-08T11:19:13.837Z,2.78
2023-09-08T11:21:43.998Z,2.97
2023-09-08T11:24:16.239Z,3.22
2023-09-08T11:26:47.869Z,2.83
2023-09-08T11:29:17.972Z,2.75
2023-09-08T11:31:48.158Z,3.03
2023-09-08T11:34:20.794Z,3.28
2023-09-08T11:36:50.915Z,3.20
2023-09-08T11:39:20.882Z,3.45
2023-09-08T11:41:51.039Z,3.20
2023-09-08T11:44:22.215Z,3.03
2023-09-08T11:46:52.489Z,3.08
2023-09-08T11:49:25.871Z,3.03
2023-09-08T11:51:55.992Z,3.63
2023-09-08T11:54:26.130Z,2.90
2023-09-08T11:56:56.386Z,3.03
2023-09-08T11:59:26.374Z,2.90
2023-09-08T12:01:56.474Z,3.00
2023-09-08T12:04:29.560Z,3.08
2023-09-08T12:06:59.805Z,3.22
2023-09-08T12:09:29.879Z,3.08
2023-09-08T12:12:00.110Z,2.85
2023-09-08T12:14:30.069Z,2.85
2023-09-08T12:17:10.702Z,3.33
2023-09-08T12:19:43.331Z,3.15
2023-09-08T12:22:14.173Z,3.05
2023-09-08T12:25:12.025Z,2.95
2023-09-08T12:27:42.197Z,3.10
2023-09-08T12:30:12.971Z,3.10
2023-09-08T12:32:45.850Z,3.10
2023-09-08T12:35:25.367Z,3.30
2023-09-08T12:37:58.379Z,3.40
2023-09-08T12:40:28.658Z,3.20
2023-09-08T12:43:01.441Z,2.90
2023-09-08T12:45:41.718Z,3.30
2023-09-08T12:48:11.878Z,2.97
2023-09-08T12:50:44.541Z,3.10
2023-09-08T12:53:14.576Z,3.28
2023-09-08T12:55:44.725Z,3.33
2023-09-08T12:58:14.757Z,3.13
2023-09-08T13:00:44.915Z,2.90
2023-09-08T13:03:14.972Z,3.08
2023-09-08T13:05:47.687Z,3.33
2023-09-08T13:08:17.865Z,3.33
2023-09-08T13:10:48.110Z,3.15
2023-09-08T13:13:18.329Z,3.00
2023-09-08T13:15:48.545Z,2.90
2023-09-08T13:18:18.708Z,3.00
2023-09-08T13:20:51.432Z,3.10
2023-09-08T13:23:21.530Z,2.90
2023-09-08T13:25:53.860Z,3.53
2023-09-08T13:28:24.020Z,3.08
2023-09-08T13:30:54.181Z,3.00
2023-09-08T13:33:24.390Z,2.95
2023-09-08T13:35:57.358Z,2.78
2023-09-08T13:38:27.406Z,2.83
2023-09-08T13:40:57.601Z,2.60
2023-09-08T13:43:27.995Z,2.78
2023-09-08T13:45:58.255Z,2.90
2023-09-08T13:48:29.024Z,3.00
2023-09-08T13:51:06.648Z,3.08
2023-09-08T13:53:43.309Z,3.10
2023-09-08T13:56:20.029Z,2.60
2023-09-08T13:58:52.101Z,2.85
2023-09-08T14:01:33.414Z,2.83
2023-09-08T14:04:09.907Z,2.90
2023-09-08T14:06:50.234Z,2.80
2023-09-08T14:14:28.279Z,2.75
2023-09-08T14:16:58.219Z,3.22
2023-09-08T14:19:28.269Z,3.28
2023-09-08T14:22:00.832Z,3.00
2023-09-08T14:24:30.749Z,3.13
2023-09-08T14:27:00.768Z,2.90
2023-09-08T14:29:30.844Z,3.20
2023-09-08T14:32:00.869Z,3.10
2023-09-08T14:34:30.946Z,3.10
2023-09-08T14:37:05.409Z,3.17
2023-09-08T14:39:36.268Z,2.88
2023-09-08T14:42:06.941Z,2.75
2023-09-08T14:44:37.202Z,2.80
2023-09-08T14:47:07.552Z,2.90
2023-09-08T14:49:37.512Z,2.92
2023-09-08T14:52:10.320Z,2.97
2023-09-08T14:54:40.299Z,2.85
2023-09-08T14:57:10.434Z,2.90
2023-09-08T14:59:40.406Z,2.95
2023-09-08T15:02:11.588Z,3.13
2023-09-08T15:04:42.025Z,2.92
2023-09-08T15:07:14.658Z,3.17
2023-09-08T15:09:44.717Z,2.72
2023-09-08T15:12:14.751Z,3.17
2023-09-08T15:14:44.711Z,3.33
2023-09-08T15:17:15.298Z,3.13
2023-09-08T15:19:45.564Z,3.15
2023-09-08T15:22:18.282Z,3.35
2023-09-08T15:24:48.354Z,2.97
2023-09-08T15:27:18.371Z,2.90
2023-09-08T15:29:48.382Z,3.17
2023-09-08T15:32:18.422Z,3.22
2023-09-08T15:34:51.254Z,3.38
2023-09-08T15:37:23.856Z,3.30
2023-09-08T15:39:53.932Z,3.17
2023-09-08T15:42:23.937Z,2.97
2023-09-08T15:44:53.930Z,3.00
2023-09-08T15:47:23.991Z,3.35
2023-09-08T15:49:54.026Z,2.88
2023-09-08T15:52:26.836Z,2.85
2023-09-08T15:54:56.849Z,3.40
2023-09-08T15:57:26.919Z,3.20
2023-09-08T15:59:56.852Z,3.35
2023-09-08T16:02:27.044Z,3.35
2023-09-08T16:04:58.132Z,3.10
2023-09-08T16:07:30.829Z,3.47
2023-09-08T16:10:00.869Z,3.53
2023-09-08T16:12:32.869Z,2.92
2023-09-08T16:15:02.997Z,3.10
2023-09-08T16:17:33.142Z,3.05
2023-09-08T16:20:06.168Z,3.17
2023-09-08T16:22:38.734Z,3.47
2023-09-08T16:25:09.644Z,3.15
2023-09-08T16:27:39.567Z,3.60
2023-09-08T16:30:10.667Z,3.38
2023-09-08T16:32:41.172Z,3.75
2023-09-08T16:35:12.538Z,3.35
2023-09-08T16:37:45.187Z,3.65
2023-09-08T16:40:15.339Z,3.50
2023-09-08T16:42:45.433Z,3.38
2023-09-08T16:45:15.797Z,3.08
2023-09-08T16:47:45.820Z,3.30
2023-09-08T16:50:15.811Z,3.38
2023-09-08T16:52:48.388Z,3.33
2023-09-08T16:55:18.563Z,3.38
2023-09-08T16:57:48.900Z,3.63
2023-09-08T17:00:21.170Z,3.53
2023-09-08T17:02:51.417Z,3.75
2023-09-08T17:05:21.803Z,4.18
2023-09-08T17:07:57.866Z,3.92
2023-09-08T17:10:28.054Z,3.88
2023-09-08T17:12:58.678Z,3.65
2023-09-08T17:15:28.876Z,4.32
2023-09-08T17:17:58.995Z,4.03
2023-09-08T17:20:32.232Z,4.25
2023-09-08T17:23:05.233Z,4.38
2023-09-08T17:25:35.394Z,5.18
2023-09-08T17:28:05.424Z,5.10
2023-09-08T17:30:35.455Z,5.25
2023-09-08T17:33:05.502Z,4.95
2023-09-08T17:35:38.347Z,4.65
2023-09-08T17:38:11.097Z,4.43
2023-09-08T17:40:41.188Z,5.03
2023-09-08T17:43:11.279Z,5.22
2023-09-08T17:45:42.073Z,5.30
2023-09-08T17:48:12.224Z,5.18
2023-09-08T17:50:42.218Z,5.38
2023-09-08T17:53:15.246Z,5.03
2023-09-08T17:55:45.382Z,5.25
2023-09-08T17:58:16.247Z,5.85
2023-09-08T18:00:48.924Z,5.65
2023-09-08T18:03:21.396Z,6.40
2023-09-08T18:05:52.837Z,7.00
2023-09-08T18:08:25.599Z,7.20
2023-09-08T18:11:02.996Z,7.47
2023-09-08T18:13:33.131Z,8.13
2023-09-08T18:16:04.441Z,8.90
2023-09-08T18:18:35.265Z,9.70
2023-09-08T18:21:05.356Z,9.10
2023-09-08T18:23:38.532Z,8.60
2023-09-08T18:26:08.839Z,7.07
2023-09-08T18:28:38.866Z,6.47
2023-09-08T18:31:08.880Z,6.53
2023-09-08T18:33:38.918Z,6.13
2023-09-08T18:36:09.650Z,5.97
2023-09-08T18:38:42.181Z,5.80
2023-09-08T18:41:12.158Z,6.30
2023-09-08T18:43:42.064Z,6.13
2023-09-08T18:46:12.065Z,5.78
2023-09-08T18:48:42.071Z,5.80
2023-09-08T18:51:12.409Z,5.93
2023-09-08T18:53:45.078Z,6.20
2023-09-08T18:56:15.505Z,5.82
2023-09-08T18:58:45.553Z,5.10
2023-09-08T19:01:15.606Z,5.80
2023-09-08T19:03:45.578Z,6.30
2023-09-08T19:06:16.069Z,6.63
2023-09-08T19:08:48.657Z,5.90
2023-09-08T19:11:20.024Z,5.85
2023-09-08T19:13:49.914Z,6.30
2023-09-08T19:16:20.548Z,6.05
2023-09-08T19:18:50.465Z,6.03
2023-09-08T19:21:20.524Z,5.90
2023-09-08T19:23:53.182Z,5.88
2023-09-08T19:26:23.146Z,5.78
2023-09-08T19:28:53.237Z,6.22
2023-09-08T19:31:23.379Z,5.88
2023-09-08T19:33:53.512Z,6.30
2023-09-08T19:36:23.667Z,6.90
2023-09-08T19:38:56.279Z,7.28
2023-09-08T19:41:27.571Z,8.35
2023-09-08T19:43:57.671Z,8.88
2023-09-08T19:46:27.915Z,7.68
2023-09-08T19:48:58.281Z,7.38
2023-09-08T19:51:28.554Z,7.15
2023-09-08T19:54:01.539Z,6.80
2023-09-08T19:56:32.471Z,7.45
2023-09-08T19:59:03.410Z,6.20
2023-09-08T20:01:33.724Z,6.13
2023-09-08T20:04:04.541Z,6.13
2023-09-08T20:06:36.179Z,6.38
2023-09-08T20:09:13.308Z,6.20
2023-09-08T20:11:44.335Z,5.85
2023-09-08T20:14:15.705Z,6.78
2023-09-08T20:16:45.911Z,5.95
2023-09-08T20:19:16.752Z,6.30
2023-09-08T20:21:46.780Z,6.45
2023-09-08T20:24:20.139Z,6.22
2023-09-08T20:26:50.971Z,6.20
2023-09-08T20:29:21.817Z,6.00
2023-09-08T20:31:51.774Z,6.32
2023-09-08T20:34:21.758Z,5.65
2023-09-08T20:36:51.771Z,5.68
2023-09-08T20:39:24.474Z,5.60
2023-09-08T20:41:54.548Z,6.05
2023-09-08T20:44:24.481Z,6.20
2023-09-08T20:46:54.456Z,6.07
2023-09-08T20:49:24.413Z,6.15
2023-09-08T20:51:54.315Z,6.50
2023-09-08T20:54:26.956Z,5.95
2023-09-08T20:56:57.320Z,6.20
2023-09-08T20:59:29.564Z,5.75
2023-09-08T21:02:00.074Z,5.90
2023-09-08T21:04:30.236Z,6.18
2023-09-08T21:07:00.376Z,6.07
2023-09-08T21:09:33.074Z,5.57
2023-09-08T21:12:03.252Z,5.13
2023-09-08T21:14:33.270Z,5.00
2023-09-08T21:17:05.445Z,5.57
2023-09-08T21:19:35.708Z,5.68
2023-09-08T21:22:05.805Z,5.88
2023-09-08T21:24:38.509Z,5.55
2023-09-08T21:27:08.606Z,5.50
2023-09-08T21:29:38.678Z,5.38
2023-09-08T21:32:09.326Z,5.50
2023-09-08T21:34:39.329Z,5.45
2023-09-08T21:37:09.441Z,5.07
2023-09-08T21:39:42.023Z,5.00
2023-09-08T21:42:12.026Z,5.20
2023-09-08T21:44:42.120Z,5.15
2023-09-08T21:47:12.191Z,5.45
2023-09-08T21:49:42.279Z,5.45
2023-09-08T21:52:14.389Z,5.53
2023-09-08T21:54:51.303Z,4.97
2023-09-08T21:57:21.369Z,4.78
2023-09-08T21:59:51.457Z,5.15
2023-09-08T22:02:21.385Z,5.18
2023-09-08T22:04:51.719Z,5.45
2023-09-08T22:07:21.902Z,5.00
2023-09-08T22:09:55.617Z,5.38
2023-09-08T22:12:25.671Z,4.82
2023-09-08T22:14:56.858Z,4.93
2023-09-08T22:17:27.013Z,4.85
2023-09-08T22:19:58.088Z,5.63
2023-09-08T22:22:28.201Z,5.53
2023-09-08T22:25:00.900Z,5.35
2023-09-08T22:27:31.017Z,5.55
2023-09-08T22:30:04.428Z,5.70
2023-09-08T22:32:34.801Z,5.82
2023-09-08T22:35:06.089Z,5.68
2023-09-08T22:37:37.926Z,5.32
2023-09-08T22:40:12.627Z,5.28
2023-09-08T22:42:42.804Z,5.57
2023-09-08T22:45:13.949Z,5.30
2023-09-08T22:47:44.047Z,4.97
2023-09-08T22:50:14.588Z,5.10
2023-09-08T22:52:44.929Z,4.90
2023-09-08T22:55:25.732Z,4.65
2023-09-08T22:57:56.687Z,5.22
2023-09-08T23:00:26.869Z,5.05
2023-09-08T23:02:56.907Z,5.00
2023-09-08T23:05:26.904Z,4.97
2023-09-08T23:07:56.838Z,5.07
2023-09-08T23:10:29.450Z,4.90
2023-09-08T23:12:59.440Z,4.57
2023-09-08T23:15:29.954Z,4.35
2023-09-08T23:18:00.348Z,5.25
2023-09-08T23:20:30.542Z,4.85
2023-09-08T23:23:01.236Z,5.13
2023-09-08T23:25:33.869Z,4.57
2023-09-08T23:28:04.124Z,5.20
2023-09-08T23:30:34.394Z,4.82
2023-09-08T23:33:04.540Z,5.13
2023-09-08T23:35:34.646Z,4.97
2023-09-08T23:38:04.703Z,4.38
2023-09-08T23:40:39.832Z,4.53
2023-09-08T23:43:09.973Z,4.50
2023-09-08T23:45:40.085Z,4.45
2023-09-08T23:48:10.325Z,4.22
2023-09-08T23:50:58.289Z,3.70
2023-09-08T23:53:29.030Z,4.30
2023-09-08T23:56:04.748Z,4.38
2023-09-08T23:58:34.933Z,4.20
